Time;durP1;ratioP1;P1;durP2;ratioP2;P2;SDS_P1;SDS_P2;PMS_P1;PMS_P2;Temp;Humidity;BMP_temperature;BMP_pressure;BME280_temperature;BME280_humidity;BME280_pressure;Samples;Min_cycle;Max_cycle;Signal;HPM_P1;HPM_P2
2024/01/20 00:00:17;;;;;;;17.90;10.02;;;;;;;9.04;87.30;99113.06;4951153;29;20027;-26
2024/01/20 00:02:43;;;;;;;14.77;9.68;;;;;;;9.17;86.54;99121.00;4951236;28;20038;-24
2024/01/20 00:05:08;;;;;;;16.42;9.20;;;;;;;9.08;85.45;99115.13;4953788;29;20496;-26
2024/01/20 00:07:34;;;;;;;15.85;7.90;;;;;;;9.09;85.03;99113.28;4936912;29;20473;-26
2024/01/20 00:09:59;;;;;;;12.27;7.00;;;;;;;9.02;84.52;99123.09;4954105;29;20023;-26
2024/01/20 00:12:25;;;;;;;10.40;6.15;;;;;;;8.91;84.57;99112.09;4954688;29;20034;-26
2024/01/20 00:14:50;;;;;;;9.10;6.03;;;;;;;8.66;84.45;99119.06;4954510;29;20077;-26
2024/01/20 00:17:15;;;;;;;11.68;6.07;;;;;;;8.98;83.39;99112.06;4954269;29;20111;-25
2024/01/20 00:19:41;;;;;;;13.05;6.47;;;;;;;9.08;81.76;99106.31;4953990;29;20038;-28
2024/01/20 00:22:06;;;;;;;11.35;6.22;;;;;;;9.04;81.80;99123.69;4954087;29;20027;-26
2024/01/20 00:24:32;;;;;;;12.23;6.40;;;;;;;8.89;81.58;99108.84;4953591;29;20075;-25
2024/01/20 00:26:57;;;;;;;9.82;5.63;;;;;;;8.78;81.70;99117.44;4953411;29;20028;-26
2024/01/20 00:29:22;;;;;;;10.48;5.93;;;;;;;8.56;82.21;99108.88;4953813;29;20369;-26
2024/01/20 00:31:48;;;;;;;10.00;5.78;;;;;;;8.78;81.29;99112.13;4954008;29;20070;-26
2024/01/20 00:34:13;;;;;;;8.55;5.07;;;;;;;8.59;81.38;99109.28;4953661;29;20046;-26
2024/01/20 00:36:38;;;;;;;10.73;5.40;;;;;;;8.55;81.66;99096.66;4953962;29;20058;-27
2024/01/20 00:39:04;;;;;;;9.52;5.45;;;;;;;8.97;80.16;99100.63;4953705;29;20027;-26
2024/01/20 00:41:30;;;;;;;10.25;5.80;;;;;;;8.70;79.60;99099.91;4953595;29;20023;-25
2024/01/20 00:43:55;;;;;;;10.52;5.72;;;;;;;8.66;80.09;99132.31;4953975;29;20027;-26
2024/01/20 00:46:21;;;;;;;15.02;5.60;;;;;;;8.41;81.19;99123.19;4954251;29;20059;-27
2024/01/20 00:48:47;;;;;;;8.35;5.57;;;;;;;8.55;80.40;99147.84;4954392;29;20102;-26
2024/01/20 00:51:13;;;;;;;10.63;6.07;;;;;;;8.65;79.84;99144.78;4954543;29;20086;-26
2024/01/20 00:53:38;;;;;;;9.00;5.65;;;;;;;8.77;78.52;99151.09;4953879;29;20023;-27
2024/01/20 00:56:04;;;;;;;10.35;5.97;;;;;;;8.63;78.82;99168.03;4953420;29;20129;-27
2024/01/20 00:58:29;;;;;;;9.60;5.43;;;;;;;8.63;78.48;99188.47;4953423;29;20027;-26
2024/01/20 01:00:54;;;;;;;9.60;5.57;;;;;;;8.54;78.22;99201.91;4953666;29;20567;-26
2024/01/20 01:03:20;;;;;;;8.32;5.28;;;;;;;8.74;77.32;99203.75;4953072;29;20507;-25
2024/01/20 01:05:45;;;;;;;10.25;6.10;;;;;;;8.52;77.76;99208.44;4953182;29;20026;-27
2024/01/20 01:08:11;;;;;;;12.45;5.70;;;;;;;8.62;78.49;99224.75;4953339;29;20023;-26
2024/01/20 01:10:36;;;;;;;10.82;5.65;;;;;;;8.85;77.42;99224.34;4953466;29;20019;-26
2024/01/20 01:13:02;;;;;;;10.68;5.68;;;;;;;8.68;77.45;99228.44;4953327;29;20110;-25
2024/01/20 01:15:29;;;;;;;9.27;5.35;;;;;;;8.53;78.31;99236.56;4952348;28;20031;-26
2024/01/20 01:17:55;;;;;;;9.13;5.53;;;;;;;8.43;78.30;99231.66;4952958;29;20027;-26
2024/01/20 01:20:20;;;;;;;10.65;5.68;;;;;;;8.40;77.95;99243.47;4953025;29;20034;-25
2024/01/20 01:22:45;;;;;;;7.65;4.90;;;;;;;8.52;77.50;99250.88;4953092;29;20027;-24
2024/01/20 01:25:11;;;;;;;7.35;4.78;;;;;;;8.53;77.04;99250.66;4952826;29;20054;-26
2024/01/20 01:27:36;;;;;;;8.07;4.82;;;;;;;8.59;76.55;99252.50;4953015;29;20514;-26
2024/01/20 01:30:02;;;;;;;10.23;5.20;;;;;;;8.75;76.05;99243.31;4953272;29;20019;-26
2024/01/20 01:32:27;;;;;;;9.00;4.93;;;;;;;8.61;75.75;99249.66;4952706;29;20133;-26
2024/01/20 01:34:53;;;;;;;7.68;5.07;;;;;;;8.74;75.21;99243.56;4952885;29;20085;-27
2024/01/20 01:37:18;;;;;;;7.13;4.45;;;;;;;8.47;75.61;99240.84;4953177;29;20478;-26
2024/01/20 01:39:43;;;;;;;7.97;4.70;;;;;;;8.30;75.83;99245.72;4953041;29;20385;-26
2024/01/20 01:42:09;;;;;;;6.63;4.30;;;;;;;8.44;75.35;99249.22;4953147;29;20027;-26
2024/01/20 01:44:35;;;;;;;8.70;4.43;;;;;;;8.50;75.27;99242.31;4952955;29;20058;-26
2024/01/20 01:47:00;;;;;;;7.18;4.32;;;;;;;8.54;74.88;99248.84;4952977;29;20143;-25
2024/01/20 01:49:26;;;;;;;8.00;4.30;;;;;;;8.45;74.44;99250.84;4952944;29;20026;-27
2024/01/20 01:51:52;;;;;;;7.07;4.38;;;;;;;7.99;75.47;99239.06;4952917;29;20062;-27
2024/01/20 01:54:21;;;;;;;6.45;4.05;;;;;;;8.15;74.67;99269.72;4952956;29;20111;-27
2024/01/20 01:56:50;;;;;;;8.15;4.63;;;;;;;8.50;73.43;99247.59;4952789;29;20024;-27
2024/01/20 01:59:16;;;;;;;6.90;4.25;;;;;;;8.68;72.65;99278.81;4953425;29;20023;-26
2024/01/20 02:01:41;;;;;;;7.20;4.15;;;;;;;8.25;73.46;99285.25;4953403;29;20063;-26
2024/01/20 02:04:07;;;;;;;6.45;4.10;;;;;;;8.45;72.18;99276.56;4953499;29;20059;-27
2024/01/20 02:06:33;;;;;;;6.28;3.80;;;;;;;8.33;72.92;99290.34;4953289;29;20391;-25
2024/01/20 02:08:58;;;;;;;8.55;4.20;;;;;;;8.40;73.06;99308.94;4953022;29;20034;-26
2024/01/20 02:11:25;;;;;;;7.15;4.10;;;;;;;8.23;71.83;99303.19;4953260;29;20106;-30
2024/01/20 02:13:50;;;;;;;8.98;4.30;;;;;;;8.66;70.04;99292.28;4953113;29;20039;-26
2024/01/20 02:16:16;;;;;;;8.25;4.05;;;;;;;8.48;70.73;99307.97;4953175;29;20023;-26
2024/01/20 02:18:41;;;;;;;6.22;3.75;;;;;;;8.56;71.80;99313.09;4952866;29;20027;-26
2024/01/20 02:21:07;;;;;;;6.53;3.50;;;;;;;8.30;71.08;99316.44;4953475;29;20078;-26
2024/01/20 02:23:41;;;;;;;8.35;3.47;;;;;;;7.90;71.77;99306.53;4953190;29;20023;-25
2024/01/20 02:26:06;;;;;;;6.40;3.50;;;;;;;8.36;70.72;99310.38;4952839;28;20483;-25
2024/01/20 02:28:32;;;;;;;6.95;3.92;;;;;;;8.36;70.77;99310.38;4952451;29;20059;-26
2024/01/20 02:30:57;;;;;;;7.38;3.83;;;;;;;8.35;70.21;99304.22;4952153;29;20022;-26
2024/01/20 02:33:22;;;;;;;6.55;3.88;;;;;;;8.40;70.06;99307.09;4952107;29;20408;-26
2024/01/20 02:35:48;;;;;;;6.55;3.85;;;;;;;8.12;70.12;99315.16;4952148;29;20255;-25
2024/01/20 02:38:13;;;;;;;5.45;3.55;;;;;;;8.03;70.71;99311.03;4952313;29;20037;-25
2024/01/20 02:40:39;;;;;;;6.95;3.50;;;;;;;7.79;71.30;99318.47;4952349;29;20023;-26
2024/01/20 02:43:04;;;;;;;4.63;3.28;;;;;;;7.70;70.93;99314.34;4952692;29;20031;-26
2024/01/20 02:45:29;;;;;;;4.20;3.03;;;;;;;7.66;70.81;99318.41;4952601;29;20487;-26
2024/01/20 02:47:55;;;;;;;5.82;3.35;;;;;;;7.67;70.80;99335.09;4952477;29;20464;-26
2024/01/20 02:50:21;;;;;;;4.78;3.35;;;;;;;7.38;71.00;99324.53;4952467;29;20027;-25
2024/01/20 02:52:46;;;;;;;6.07;3.60;;;;;;;7.61;70.97;99326.13;4952417;29;20116;-25
2024/01/20 02:55:11;;;;;;;5.38;3.20;;;;;;;7.81;69.85;99329.69;4952517;29;20688;-37
2024/01/20 02:57:37;;;;;;;7.47;3.40;;;;;;;7.88;69.48;99350.94;4952167;29;20032;-36
2024/01/20 03:00:04;;;;;;;6.28;3.00;;;;;;;7.44;70.11;99352.91;4952205;29;20023;-36
2024/01/20 03:02:30;;;;;;;7.32;3.25;;;;;;;7.49;70.33;99347.03;4952243;29;20023;-36
2024/01/20 03:04:59;;;;;;;6.43;2.97;;;;;;;7.45;70.29;99348.41;4952116;29;20140;-37
2024/01/20 03:07:25;;;;;;;3.95;2.72;;;;;;;7.44;69.66;99339.66;4952407;29;20031;-36
2024/01/20 03:09:50;;;;;;;5.43;3.20;;;;;;;7.39;70.55;99349.19;4951936;29;20043;-37
2024/01/20 03:12:16;;;;;;;5.95;3.50;;;;;;;7.43;70.07;99353.09;4951368;29;20034;-39
2024/01/20 03:14:41;;;;;;;5.68;3.20;;;;;;;7.47;69.78;99356.19;4952183;29;20023;-37
2024/01/20 03:17:06;;;;;;;4.65;3.00;;;;;;;7.21;70.18;99363.69;4952201;29;20019;-37
2024/01/20 03:19:32;;;;;;;6.97;3.20;;;;;;;7.23;70.35;99361.69;4952308;29;20051;-38
2024/01/20 03:21:57;;;;;;;7.65;3.13;;;;;;;7.17;69.59;99372.22;4952181;29;20035;-37
2024/01/20 03:24:23;;;;;;;5.75;3.35;;;;;;;7.34;69.23;99375.41;4952355;29;20050;-37
2024/01/20 03:26:49;;;;;;;5.10;3.08;;;;;;;7.12;69.19;99388.69;4951677;29;20336;-36
2024/01/20 03:29:15;;;;;;;5.00;3.15;;;;;;;7.24;69.63;99379.19;4951888;29;20055;-39
2024/01/20 03:31:40;;;;;;;4.70;2.92;;;;;;;7.04;69.39;99383.50;4951736;29;20047;-38
2024/01/20 03:34:06;;;;;;;4.45;3.17;;;;;;;7.13;69.41;99378.91;4951219;29;20036;-40
2024/01/20 03:36:31;;;;;;;6.93;3.25;;;;;;;7.01;69.24;99375.94;4951588;29;20027;-37
2024/01/20 03:38:57;;;;;;;5.47;3.05;;;;;;;7.23;69.32;99384.69;4953187;28;20023;-36
2024/01/20 03:41:22;;;;;;;4.60;3.30;;;;;;;7.31;68.91;99376.63;4955009;29;20023;-36
2024/01/20 03:43:47;;;;;;;5.60;3.40;;;;;;;7.11;68.90;99384.38;4954904;29;20032;-36
2024/01/20 03:46:17;;;;;;;4.57;3.20;;;;;;;7.08;69.03;99390.03;4954927;29;20208;-38
2024/01/20 03:48:42;;;;;;;5.32;3.20;;;;;;;7.15;69.72;99396.22;4954907;29;20106;-39
2024/01/20 03:51:09;;;;;;;5.50;3.35;;;;;;;7.28;68.45;99395.53;4955388;29;20102;-37
2024/01/20 03:53:34;;;;;;;5.85;3.30;;;;;;;7.25;68.37;99398.53;4955264;29;20082;-37
2024/01/20 03:56:01;;;;;;;5.72;3.63;;;;;;;6.98;68.55;99402.78;4955229;29;20024;-38
2024/01/20 03:58:27;;;;;;;6.47;3.53;;;;;;;7.28;68.58;99415.88;4954411;29;20109;-37
2024/01/20 04:00:52;;;;;;;5.03;3.25;;;;;;;7.04;69.81;99418.72;4954390;29;20409;-36
2024/01/20 04:03:17;;;;;;;5.00;3.45;;;;;;;6.94;69.89;99428.78;4954325;29;20066;-40
2024/01/20 04:05:43;;;;;;;5.35;3.42;;;;;;;6.94;69.49;99423.50;4954222;29;20046;-39
2024/01/20 04:08:08;;;;;;;4.78;3.03;;;;;;;7.34;68.91;99445.06;4954368;29;20046;-40
2024/01/20 04:10:34;;;;;;;5.28;3.30;;;;;;;7.11;68.20;99444.44;4954075;29;20042;-39
2024/01/20 04:12:59;;;;;;;4.97;2.92;;;;;;;7.04;68.81;99442.53;4954479;29;20053;-37
2024/01/20 04:15:25;;;;;;;5.45;3.35;;;;;;;7.18;68.93;99442.69;4954742;29;20027;-37
2024/01/20 04:17:52;;;;;;;5.80;3.40;;;;;;;7.22;68.62;99443.94;4954964;29;20027;-38
2024/01/20 04:20:18;;;;;;;4.60;2.90;;;;;;;7.18;68.43;99440.03;4954737;29;20118;-40
2024/01/20 04:22:43;;;;;;;5.97;3.33;;;;;;;6.91;68.86;99447.69;4954613;29;20130;-37
2024/01/20 04:25:08;;;;;;;6.03;3.13;;;;;;;7.24;68.10;99455.97;4937306;29;20046;-36
2024/01/20 04:27:40;;;;;;;4.70;3.28;;;;;;;6.95;68.47;99470.13;4954096;29;20038;-39
2024/01/20 04:30:09;;;;;;;5.93;3.00;;;;;;;7.08;69.20;99479.19;4954111;29;20031;-38
2024/01/20 04:32:34;;;;;;;5.18;2.95;;;;;;;7.08;68.62;99477.34;4953753;29;20089;-39
2024/01/20 04:35:00;;;;;;;6.82;2.80;;;;;;;7.01;68.62;99495.00;4953598;29;20425;-39
2024/01/20 04:37:25;;;;;;;4.55;3.22;;;;;;;6.89;68.23;99499.94;4953933;29;20042;-39
2024/01/20 04:39:51;;;;;;;7.05;3.05;;;;;;;6.61;69.80;99511.19;4954174;29;20094;-40
2024/01/20 04:42:16;;;;;;;4.10;2.88;;;;;;;6.93;69.05;99518.91;4954593;29;20646;-37
2024/01/20 04:44:41;;;;;;;4.72;3.05;;;;;;;7.00;67.73;99520.63;4954544;29;20035;-36
2024/01/20 04:47:07;;;;;;;4.47;2.60;;;;;;;6.96;67.74;99526.50;4954112;29;20573;-37
2024/01/20 04:49:32;;;;;;;4.07;3.25;;;;;;;6.81;68.18;99529.16;4954603;28;20054;-36
2024/01/20 04:52:01;;;;;;;3.88;2.47;;;;;;;6.54;68.19;99539.38;4925692;29;20107;-38
2024/01/20 04:54:27;;;;;;;5.72;2.83;;;;;;;6.55;68.69;99545.47;4945089;29;20059;-37
2024/01/20 04:56:52;;;;;;;5.20;2.80;;;;;;;6.48;68.86;99552.50;4944167;29;20027;-36
2024/01/20 04:59:18;;;;;;;4.15;2.50;;;;;;;6.44;68.41;99554.69;4943485;29;20535;-36
2024/01/20 05:01:45;;;;;;;3.13;2.38;;;;;;;6.40;68.67;99564.00;4945031;29;20090;-36
2024/01/20 05:04:12;;;;;;;4.45;2.22;;;;;;;6.16;69.35;99562.41;4943318;29;20027;-37
2024/01/20 05:06:38;;;;;;;4.60;2.42;;;;;;;6.13;69.18;99570.66;4928199;29;20032;-37
2024/01/20 05:09:04;;;;;;;4.60;2.53;;;;;;;6.18;68.92;99565.69;4942818;29;20028;-36
2024/01/20 05:11:29;;;;;;;4.13;2.42;;;;;;;6.52;67.80;99588.97;4944666;29;20023;-39
2024/01/20 05:13:55;;;;;;;4.50;2.45;;;;;;;6.51;67.85;99589.97;4935761;29;20032;-36
2024/01/20 05:16:20;;;;;;;3.53;2.65;;;;;;;6.43;67.75;99588.22;4949485;29;20050;-36
2024/01/20 05:18:45;;;;;;;3.88;2.60;;;;;;;6.39;68.10;99591.41;4944286;29;20464;-36
2024/01/20 05:21:14;;;;;;;3.70;2.40;;;;;;;6.49;68.02;99605.19;4943440;29;20392;-39
2024/01/20 05:23:40;;;;;;;3.88;2.30;;;;;;;6.38;67.89;99595.06;4944920;29;20029;-37
2024/01/20 05:26:06;;;;;;;3.28;2.35;;;;;;;6.40;68.22;99606.28;4942200;29;20035;-38
2024/01/20 05:28:31;;;;;;;2.90;2.30;;;;;;;6.17;67.99;99611.56;4942865;29;20045;-37
2024/01/20 05:30:57;;;;;;;3.80;2.30;;;;;;;6.18;67.64;99623.81;4941888;29;20106;-36
2024/01/20 05:33:22;;;;;;;2.95;2.30;;;;;;;6.20;67.89;99624.44;4943864;29;20035;-36
2024/01/20 05:35:47;;;;;;;3.72;2.40;;;;;;;6.00;68.41;99624.13;4943956;29;20054;-37
2024/01/20 05:38:13;;;;;;;4.15;2.00;;;;;;;6.09;68.04;99622.22;4921112;29;20043;-37
2024/01/20 05:40:38;;;;;;;4.25;2.38;;;;;;;6.32;67.87;99633.63;4934396;29;20043;-36
2024/01/20 05:43:06;;;;;;;5.35;2.20;;;;;;;6.12;67.88;99619.25;4936195;29;20032;-26
2024/01/20 05:45:32;;;;;;;3.47;2.40;;;;;;;6.19;67.59;99634.19;4953185;29;20428;-26
2024/01/20 05:47:57;;;;;;;4.43;2.30;;;;;;;6.23;67.14;99645.25;4953519;29;20023;-25
2024/01/20 05:50:23;;;;;;;4.00;2.25;;;;;;;6.48;66.55;99645.03;4953706;29;20557;-26
2024/01/20 05:52:50;;;;;;;4.47;2.40;;;;;;;6.47;65.86;99636.25;4953195;29;20042;-26
2024/01/20 05:55:17;;;;;;;3.50;2.42;;;;;;;6.22;66.47;99646.22;4952986;29;20107;-26
2024/01/20 05:57:42;;;;;;;4.97;2.30;;;;;;;5.99;66.62;99647.06;4953091;29;20035;-26
2024/01/20 06:00:09;;;;;;;3.42;2.10;;;;;;;6.33;66.03;99651.09;4953452;29;20090;-27
2024/01/20 06:02:35;;;;;;;5.30;2.10;;;;;;;5.96;66.90;99660.63;4953064;28;20101;-26
2024/01/20 06:05:01;;;;;;;3.92;2.10;;;;;;;6.13;65.83;99658.69;4952771;29;20034;-26
2024/01/20 06:07:26;;;;;;;3.00;1.90;;;;;;;6.17;65.88;99664.44;4952553;29;20023;-26
2024/01/20 06:09:52;;;;;;;3.67;2.00;;;;;;;5.90;66.00;99673.66;4952735;29;20460;-26
2024/01/20 06:12:17;;;;;;;3.55;2.22;;;;;;;6.06;66.12;99685.00;4952599;29;20050;-26
2024/01/20 06:14:43;;;;;;;3.88;2.35;;;;;;;5.78;66.23;99679.34;4952274;29;20022;-28
2024/01/20 06:17:09;;;;;;;3.50;1.92;;;;;;;6.31;68.41;99698.03;4952877;29;20054;-26
2024/01/20 06:19:34;;;;;;;4.75;2.30;;;;;;;5.99;65.74;99699.88;4952813;29;20059;-28
2024/01/20 06:22:00;;;;;;;3.10;2.08;;;;;;;6.36;64.92;99697.50;4952006;29;20066;-26
2024/01/20 06:24:25;;;;;;;4.45;2.40;;;;;;;6.17;64.38;99696.97;4952334;29;20063;-25
2024/01/20 06:26:50;;;;;;;3.35;1.88;;;;;;;5.96;65.01;99720.53;4952390;29;20063;-27
2024/01/20 06:29:16;;;;;;;2.85;2.22;;;;;;;5.66;65.86;99715.06;4951908;29;20756;-25
2024/01/20 06:31:41;;;;;;;2.90;2.10;;;;;;;5.68;65.27;99726.28;4952022;29;20074;-28
2024/01/20 06:34:07;;;;;;;2.90;1.98;;;;;;;5.54;65.91;99740.19;4951592;29;20062;-27
2024/01/20 06:36:32;;;;;;;2.83;2.20;;;;;;;6.29;69.76;99741.50;4951572;29;20371;-26
2024/01/20 06:38:57;;;;;;;2.80;1.85;;;;;;;6.30;64.08;99751.06;4950649;29;20511;-27
2024/01/20 06:41:23;;;;;;;2.75;1.75;;;;;;;6.54;64.53;99760.66;4951664;29;20019;-26
2024/01/20 06:43:48;;;;;;;4.50;2.30;;;;;;;6.94;67.63;99770.06;4951551;29;20022;-28
2024/01/20 06:46:14;;;;;;;4.38;2.00;;;;;;;6.54;65.67;99765.94;4951869;29;20062;-26
2024/01/20 06:48:39;;;;;;;3.03;2.10;;;;;;;6.04;66.94;99783.94;4952816;29;20459;-39
2024/01/20 06:51:06;;;;;;;6.78;2.88;;;;;;;5.54;69.60;99790.34;4952076;29;20440;-41
2024/01/20 06:53:32;;;;;;;3.42;2.50;;;;;;;5.34;71.70;99806.56;4943944;29;20047;-36
2024/01/20 06:55:58;;;;;;;3.90;1.80;;;;;;;5.27;72.62;99805.56;4945763;29;20027;-39
2024/01/20 06:58:24;;;;;;;3.15;2.10;;;;;;;5.17;73.66;99799.66;4942559;29;20539;-39
2024/01/20 07:00:50;;;;;;;2.70;2.00;;;;;;;5.25;73.55;99812.84;4952709;29;20051;-37
2024/01/20 07:03:16;;;;;;;2.88;2.03;;;;;;;5.05;74.04;99821.09;4952521;29;20019;-36
2024/01/20 07:05:42;;;;;;;2.65;2.03;;;;;;;5.35;73.06;99829.34;4952044;29;20031;-36
2024/01/20 07:08:09;;;;;;;3.33;2.13;;;;;;;4.96;75.29;99830.00;4950549;29;20035;-37
2024/01/20 07:10:34;;;;;;;3.65;2.30;;;;;;;5.00;75.63;99833.97;4941678;29;20019;-39
2024/01/20 07:13:00;;;;;;;4.00;2.35;;;;;;;5.12;75.67;99844.19;4925366;29;20535;-31
2024/01/20 07:15:26;;;;;;;2.92;2.20;;;;;;;4.64;78.56;99838.72;4942129;29;20017;-27
2024/01/20 07:17:55;;;;;;;3.20;2.30;;;;;;;4.65;79.33;99872.00;4943389;29;20019;-27
2024/01/20 07:20:21;;;;;;;3.10;2.28;;;;;;;4.68;79.61;99858.50;4943388;29;20059;-27
2024/01/20 07:22:47;;;;;;;3.33;2.22;;;;;;;4.72;80.22;99859.00;4941834;29;20058;-26
2024/01/20 07:25:12;;;;;;;3.13;2.60;;;;;;;4.48;82.23;99858.78;4945355;29;20101;-25
2024/01/20 07:27:38;;;;;;;3.42;2.40;;;;;;;4.45;82.98;99866.19;4943451;29;20031;-26
2024/01/20 07:30:04;;;;;;;4.85;2.20;;;;;;;4.82;81.88;99871.06;4955007;29;20054;-39
2024/01/20 07:32:30;;;;;;;3.88;2.33;;;;;;;4.61;82.82;99868.06;4954330;29;20063;-41
2024/01/20 07:34:55;;;;;;;3.28;2.10;;;;;;;4.60;82.49;99884.84;4954199;29;20020;-39
2024/01/20 07:37:21;;;;;;;2.53;2.10;;;;;;;4.36;84.24;99890.84;4954069;29;20396;-39
2024/01/20 07:39:47;;;;;;;3.45;2.10;;;;;;;4.31;84.45;99904.53;4954403;29;20027;-40
2024/01/20 07:42:12;;;;;;;2.53;2.03;;;;;;;3.93;86.57;99901.38;4955214;29;20543;-38
2024/01/20 07:44:37;;;;;;;2.75;1.90;;;;;;;3.84;87.83;99907.59;4950083;29;20028;-37
2024/01/20 07:47:03;;;;;;;4.40;2.47;;;;;;;3.76;88.43;99916.25;4936309;29;20059;-40
2024/01/20 07:49:28;;;;;;;4.00;2.20;;;;;;;3.42;89.83;99919.63;4936128;29;20369;-39
2024/01/20 07:51:54;;;;;;;2.70;2.08;;;;;;;3.36;90.70;99924.69;4936515;29;20037;-41
2024/01/20 07:54:19;;;;;;;3.00;2.03;;;;;;;3.30;91.16;99934.84;4918857;29;20107;-37
2024/01/20 07:56:44;;;;;;;5.80;2.95;;;;;;;2.98;92.67;99932.75;4935611;29;20059;-40
2024/01/20 07:59:10;;;;;;;3.00;2.05;;;;;;;3.08;92.87;99954.53;4935579;29;20031;-41
2024/01/20 08:01:35;;;;;;;2.70;1.70;;;;;;;2.79;93.49;99953.91;4936267;29;20406;-40
2024/01/20 08:04:01;;;;;;;4.25;2.15;;;;;;;3.28;93.37;99954.38;4935754;29;20023;-40
2024/01/20 08:06:27;;;;;;;2.17;1.67;;;;;;;2.99;92.67;99962.47;4935464;29;20058;-38
2024/01/20 08:08:52;;;;;;;2.72;1.70;;;;;;;2.78;93.15;99973.25;4934356;29;20032;-40
2024/01/20 08:11:18;;;;;;;2.60;1.70;;;;;;;2.96;93.11;99971.50;4934237;29;20055;-40
2024/01/20 08:13:43;;;;;;;3.20;2.20;;;;;;;2.98;92.76;99976.63;4933855;29;20456;-40
2024/01/20 08:16:09;;;;;;;2.38;2.00;;;;;;;2.83;93.64;99969.22;4934822;29;20043;-37
2024/01/20 08:18:34;;;;;;;2.80;2.08;;;;;;;2.72;93.75;99983.41;4934700;29;20489;-38
2024/01/20 08:21:05;;;;;;;2.72;2.05;;;;;;;2.58;94.46;99994.41;4934519;29;20038;-41
2024/01/20 08:23:30;;;;;;;3.00;2.00;;;;;;;2.70;94.23;100001.13;4926750;29;20396;-40
2024/01/20 08:25:56;;;;;;;2.53;1.90;;;;;;;2.90;93.09;99993.13;4936450;29;20038;-41
2024/01/20 08:28:22;;;;;;;2.88;2.15;;;;;;;2.63;93.13;100007.94;4937147;29;20031;-42
2024/01/20 08:30:47;;;;;;;3.67;2.38;;;;;;;2.51;93.64;100012.56;4935552;29;20381;-39
2024/01/20 08:33:12;;;;;;;4.13;2.63;;;;;;;2.15;95.52;100009.78;4933261;29;20051;-38
2024/01/20 08:35:38;;;;;;;3.72;2.40;;;;;;;2.46;95.77;100025.28;4933980;29;20110;-35
2024/01/20 08:38:03;;;;;;;3.78;2.40;;;;;;;2.39;95.78;100026.00;4933952;29;20040;-39
2024/01/20 08:40:31;;;;;;;3.90;2.63;;;;;;;2.37;95.31;100022.72;4934267;29;20053;-40
2024/01/20 08:42:57;;;;;;;3.92;2.88;;;;;;;2.45;94.63;100031.50;4934156;29;20050;-39
2024/01/20 08:45:22;;;;;;;3.80;2.60;;;;;;;2.33;94.98;100041.38;4946307;29;20411;-39
2024/01/20 08:47:48;;;;;;;5.38;2.50;;;;;;;2.23;95.10;100044.97;4953577;29;20081;-37
2024/01/20 08:50:13;;;;;;;4.07;2.67;;;;;;;2.15;95.19;100050.94;4953565;29;20413;-38
2024/01/20 08:52:39;;;;;;;4.60;2.92;;;;;;;1.83;96.34;100036.38;4953103;29;20138;-39
2024/01/20 08:55:05;;;;;;;4.38;2.95;;;;;;;1.60;98.69;100069.09;4952706;29;20031;-36
2024/01/20 08:57:32;;;;;;;4.05;2.80;;;;;;;1.76;98.76;100075.44;4952507;29;20023;-39
2024/01/20 08:59:57;;;;;;;4.22;2.70;;;;;;;1.70;97.48;100077.81;4953012;29;20027;-41
2024/01/20 09:02:23;;;;;;;3.45;2.58;;;;;;;1.72;98.57;100084.56;4953047;29;20081;-41
2024/01/20 09:04:48;;;;;;;4.15;2.85;;;;;;;1.64;98.78;100088.81;4953595;29;20019;-40
2024/01/20 09:07:13;;;;;;;4.22;2.35;;;;;;;1.54;98.74;100086.19;4953666;29;20067;-39
2024/01/20 09:09:39;;;;;;;6.32;3.10;;;;;;;1.53;98.98;100098.50;4953282;29;20042;-42
2024/01/20 09:12:05;;;;;;;5.03;3.40;;;;;;;1.55;98.80;100088.69;4953373;29;20117;-42
2024/01/20 09:14:30;;;;;;;3.95;2.45;;;;;;;1.62;98.21;100109.97;4952906;29;20035;-40
2024/01/20 09:16:55;;;;;;;3.75;2.22;;;;;;;1.40;98.51;100107.59;4952794;29;20046;-40
2024/01/20 09:19:21;;;;;;;3.75;2.53;;;;;;;1.48;98.96;100113.81;4953075;29;20019;-39
2024/01/20 09:21:46;;;;;;;5.53;2.50;;;;;;;1.46;99.37;100102.63;4953334;29;20098;-41
2024/01/20 09:24:12;;;;;;;3.70;2.38;;;;;;;1.31;98.94;100099.59;4953216;29;20031;-39
2024/01/20 09:26:37;;;;;;;3.65;2.45;;;;;;;1.37;99.90;100108.66;4953490;29;20024;-39
2024/01/20 09:29:02;;;;;;;3.53;2.42;;;;;;;1.28;99.66;100123.44;4953057;29;20407;-39
2024/01/20 09:31:28;;;;;;;2.75;1.98;;;;;;;1.22;100.00;100120.50;4953138;29;20051;-41
2024/01/20 09:33:53;;;;;;;3.78;2.20;;;;;;;1.24;100.00;100134.31;4953667;29;20059;-39
2024/01/20 09:36:18;;;;;;;3.40;2.53;;;;;;;1.35;100.00;100132.44;4951301;28;20027;-39
2024/01/20 09:38:44;;;;;;;4.13;2.90;;;;;;;1.50;100.00;100127.59;4952033;29;20050;-39
2024/01/20 09:41:09;;;;;;;3.60;2.42;;;;;;;1.29;100.00;100132.94;4953008;29;20086;-39
2024/01/20 09:43:38;;;;;;;4.55;2.55;;;;;;;1.47;100.00;100130.53;4953560;29;20055;-39
2024/01/20 09:46:04;;;;;;;4.20;2.72;;;;;;;1.59;99.96;100133.03;4953026;29;20037;-38
2024/01/20 09:48:29;;;;;;;4.30;2.80;;;;;;;1.91;99.87;100135.41;4953330;29;20114;-39
2024/01/20 09:50:54;;;;;;;6.25;3.00;;;;;;;1.99;98.07;100138.16;4952988;29;20035;-37
2024/01/20 09:53:20;;;;;;;4.03;3.05;;;;;;;2.12;96.35;100114.25;4953174;29;20042;-25
2024/01/20 09:55:46;;;;;;;5.07;3.33;;;;;;;2.41;95.20;100147.53;4935462;29;20027;-26
2024/01/20 09:58:12;;;;;;;5.65;3.60;;;;;;;2.39;95.36;100155.53;4952962;29;20500;-26
2024/01/20 10:00:39;;;;;;;5.97;3.70;;;;;;;2.13;95.65;100136.91;4952478;29;20045;-24
2024/01/20 10:03:07;;;;;;;6.70;4.38;;;;;;;2.10;95.55;100153.78;4951724;29;20021;-39
2024/01/20 10:05:33;;;;;;;6.50;4.20;;;;;;;2.41;96.96;100150.97;4952337;29;20118;-39
2024/01/20 10:07:59;;;;;;;6.03;4.32;;;;;;;2.38;95.47;100153.91;4952703;29;20043;-40
2024/01/20 10:10:24;;;;;;;6.22;3.97;;;;;;;2.30;95.85;100144.09;4951869;29;20097;-41
2024/01/20 10:12:50;;;;;;;5.53;3.75;;;;;;;2.23;96.54;100158.75;4933706;29;20488;-39
2024/01/20 10:15:25;;;;;;;7.35;3.80;;;;;;;2.24;97.54;100157.78;4951318;29;20027;-42
2024/01/20 10:17:50;;;;;;;4.60;3.30;;;;;;;2.45;96.25;100154.97;4951481;29;20122;-38
2024/01/20 10:20:26;;;;;;;6.38;3.60;;;;;;;2.72;94.75;100156.03;4951630;29;20102;-39
2024/01/20 10:22:52;;;;;;;5.30;3.33;;;;;;;2.15;96.59;100150.72;4934753;29;20110;-39
2024/01/20 10:25:20;;;;;;;5.85;3.55;;;;;;;2.30;96.42;100159.00;4952385;29;20102;-38
2024/01/20 10:27:47;;;;;;;4.30;3.10;;;;;;;2.75;94.63;100163.63;4952444;29;20031;-40
2024/01/20 10:30:15;;;;;;;4.70;3.28;;;;;;;2.54;94.26;100171.72;4952157;29;20023;-39
2024/01/20 10:32:41;;;;;;;5.80;3.40;;;;;;;2.71;95.33;100162.28;4951731;29;20131;-37
2024/01/20 10:35:08;;;;;;;5.28;3.55;;;;;;;2.74;95.02;100172.47;4951883;29;20065;-40
2024/01/20 10:37:37;;;;;;;5.63;3.70;;;;;;;2.98;93.75;100173.81;4952165;29;20023;-38
2024/01/20 10:40:04;;;;;;;5.13;3.88;;;;;;;2.86;93.85;100181.06;4951117;29;20121;-39
2024/01/20 10:42:30;;;;;;;12.32;5.72;;;;;;;3.04;92.77;100187.19;4952205;29;20571;-36
2024/01/20 10:45:09;;;;;;;7.78;4.40;;;;;;;2.94;92.31;100184.59;4952447;29;20019;-38
2024/01/20 10:47:41;;;;;;;7.97;4.78;;;;;;;2.93;91.76;100176.84;4952232;29;20057;-39
2024/01/20 10:50:08;;;;;;;8.15;5.68;;;;;;;2.99;92.92;100183.34;4946434;29;20022;-36
2024/01/20 10:52:35;;;;;;;9.02;5.50;;;;;;;3.01;95.34;100184.88;4941871;29;20571;-39
2024/01/20 10:55:01;;;;;;;10.57;5.82;;;;;;;2.99;93.45;100189.44;4940600;29;20028;-38
2024/01/20 10:57:27;;;;;;;7.85;5.05;;;;;;;3.21;90.82;100192.69;4938559;29;20027;-41
2024/01/20 10:59:54;;;;;;;7.75;4.68;;;;;;;3.12;91.51;100195.22;4932385;29;20020;-37
2024/01/20 11:02:21;;;;;;;9.50;4.32;;;;;;;3.07;92.00;100192.19;4932098;29;20027;-41
2024/01/20 11:04:46;;;;;;;7.18;4.55;;;;;;;2.87;93.09;100201.91;4932204;29;20111;-38
2024/01/20 11:07:12;;;;;;;8.57;5.07;;;;;;;2.86;92.76;100204.72;4932490;29;20123;-38
2024/01/20 11:09:38;;;;;;;7.70;4.97;;;;;;;2.84;93.19;100215.38;4933064;29;20098;-39
2024/01/20 11:12:07;;;;;;;8.00;5.13;;;;;;;3.00;93.40;100200.78;4938356;29;20046;-37
2024/01/20 11:14:34;;;;;;;8.13;5.20;;;;;;;3.42;94.89;100195.91;4951845;29;20023;-39
2024/01/20 11:17:10;;;;;;;9.07;5.43;;;;;;;3.36;91.81;100204.38;4950708;29;20160;-36
2024/01/20 11:19:35;;;;;;;8.40;5.35;;;;;;;3.10;93.71;100209.47;4951421;29;20058;-38
2024/01/20 11:22:01;;;;;;;7.07;4.70;;;;;;;3.30;90.32;100205.78;4951821;29;20110;-40
2024/01/20 11:24:41;;;;;;;9.13;5.05;;;;;;;3.25;89.75;100215.09;4951312;29;20054;-25
2024/01/20 11:27:07;;;;;;;7.95;4.90;;;;;;;2.98;90.78;100223.78;4951247;29;20063;-24
2024/01/20 11:29:32;;;;;;;8.05;5.10;;;;;;;3.03;90.71;100227.63;4951219;29;20122;-25
2024/01/20 11:31:58;;;;;;;9.50;5.22;;;;;;;3.11;90.85;100221.66;4950561;29;20085;-24